Time;durP1;ratioP1;P1;durP2;ratioP2;P2;SDS_P1;SDS_P2;PMS_P1;PMS_P2;Temp;Humidity;BMP_temperature;BMP_pressure;BME280_temperature;BME280_humidity;BME280_pressure;Samples;Min_cycle;Max_cycle;Signal;HPM_P1;HPM_P2
2024/01/27 00:02:19;;;;;;;19.98;2.83;;;4.40;99.90;;;;;;5102293;28;20538;-54
2024/01/27 00:04:44;;;;;;;19.25;2.42;;;4.40;99.90;;;;;;5104638;28;20039;-54
2024/01/27 00:07:10;;;;;;;19.33;2.50;;;4.40;99.90;;;;;;5107224;28;20024;-54
2024/01/27 00:09:36;;;;;;;11.60;3.55;;;4.40;99.90;;;;;;5119095;27;20027;-54
2024/01/27 00:12:01;;;;;;;14.13;2.53;;;4.30;99.90;;;;;;5099629;28;20032;-55
2024/01/27 00:14:27;;;;;;;6.10;1.63;;;4.30;99.90;;;;;;5103122;28;20027;-60
2024/01/27 00:16:53;;;;;;;13.85;2.25;;;4.30;99.90;;;;;;5097453;28;20042;-74
2024/01/27 00:19:19;;;;;;;9.10;2.95;;;4.30;99.90;;;;;;5099302;28;20020;-53
2024/01/27 00:21:44;;;;;;;9.63;2.28;;;4.30;99.90;;;;;;5099269;28;20062;-54
2024/01/27 00:24:10;;;;;;;12.77;2.78;;;4.20;99.90;;;;;;5099412;28;20027;-54
2024/01/27 00:26:35;;;;;;;16.50;2.10;;;4.20;99.90;;;;;;5101432;28;20016;-55
2024/01/27 00:29:01;;;;;;;8.20;2.30;;;4.20;99.90;;;;;;5099700;28;20020;-54
2024/01/27 00:31:27;;;;;;;10.65;2.30;;;4.20;99.90;;;;;;5110252;28;20032;-53
2024/01/27 00:33:52;;;;;;;6.10;1.90;;;4.20;99.90;;;;;;5117897;28;20508;-55
2024/01/27 00:36:19;;;;;;;10.50;2.05;;;4.10;99.90;;;;;;5102604;27;20028;-53
2024/01/27 00:38:45;;;;;;;7.47;1.77;;;4.10;99.90;;;;;;5095838;28;20035;-53
2024/01/27 00:41:16;;;;;;;12.18;1.90;;;4.20;99.90;;;;;;5095338;28;20031;-55
2024/01/27 00:43:42;;;;;;;5.95;1.95;;;4.10;99.90;;;;;;5095553;28;20093;-53
2024/01/27 00:46:07;;;;;;;7.05;1.77;;;4.10;99.90;;;;;;5094517;28;20209;-54
2024/01/27 00:48:33;;;;;;;15.30;2.25;;;4.10;99.90;;;;;;5095531;28;20124;-55
2024/01/27 00:50:58;;;;;;;6.25;1.65;;;4.10;99.90;;;;;;5095564;28;20420;-53
2024/01/27 00:53:24;;;;;;;9.55;1.70;;;4.10;99.90;;;;;;5105599;28;20027;-55
2024/01/27 00:55:50;;;;;;;7.43;1.85;;;4.10;99.90;;;;;;5115544;28;20475;-55
2024/01/27 00:58:16;;;;;;;5.40;1.90;;;4.10;99.90;;;;;;5095384;28;20495;-53
2024/01/27 01:00:42;;;;;;;6.25;1.80;;;4.10;99.90;;;;;;5095144;28;20509;-52
2024/01/27 01:03:07;;;;;;;8.40;1.50;;;4.10;99.90;;;;;;5097873;28;20547;-55
2024/01/27 01:05:33;;;;;;;10.70;1.80;;;4.10;99.90;;;;;;5111551;28;20016;-54
2024/01/27 01:07:59;;;;;;;6.85;2.05;;;4.10;99.90;;;;;;5095168;28;20028;-53
2024/01/27 01:10:24;;;;;;;11.77;1.90;;;4.10;99.90;;;;;;5099382;28;20027;-56
2024/01/27 01:12:50;;;;;;;13.98;2.55;;;4.10;99.90;;;;;;5098928;28;20031;-53
2024/01/27 01:15:16;;;;;;;4.40;2.67;;;4.00;99.90;;;;;;5095053;28;20032;-55
2024/01/27 01:17:42;;;;;;;6.65;1.80;;;4.00;99.90;;;;;;5094583;28;20127;-55
2024/01/27 01:20:08;;;;;;;8.82;1.45;;;4.00;99.90;;;;;;5097351;28;20364;-54
2024/01/27 01:22:33;;;;;;;7.05;1.63;;;4.00;99.90;;;;;;5094799;28;20086;-53
2024/01/27 01:24:59;;;;;;;10.02;1.88;;;4.00;99.90;;;;;;5094849;28;20020;-53
2024/01/27 01:27:25;;;;;;;10.45;1.80;;;4.10;99.90;;;;;;5094666;28;20028;-54
2024/01/27 01:29:50;;;;;;;8.63;1.83;;;4.00;99.90;;;;;;5093371;28;20320;-54
2024/01/27 01:32:16;;;;;;;9.80;2.17;;;4.00;99.90;;;;;;5104034;28;20038;-55
2024/01/27 01:34:42;;;;;;;12.02;1.90;;;4.00;99.90;;;;;;5115049;28;20365;-56
2024/01/27 01:37:07;;;;;;;6.68;1.48;;;4.00;99.90;;;;;;5109356;28;20538;-56
2024/01/27 01:39:33;;;;;;;12.60;2.05;;;4.00;99.90;;;;;;5094426;28;20028;-55
2024/01/27 01:41:59;;;;;;;8.10;1.52;;;4.00;99.90;;;;;;5094495;28;20092;-55
2024/01/27 01:44:30;;;;;;;15.35;1.40;;;4.00;99.90;;;;;;5094521;28;20036;-54
2024/01/27 01:46:56;;;;;;;16.40;2.13;;;4.00;99.90;;;;;;5094620;28;20407;-55
2024/01/27 01:49:22;;;;;;;15.20;1.83;;;4.00;99.90;;;;;;5094172;28;20035;-54
2024/01/27 01:51:48;;;;;;;14.35;2.70;;;4.00;99.90;;;;;;5094331;28;20440;-54
2024/01/27 01:54:14;;;;;;;8.43;1.30;;;3.90;99.90;;;;;;5094880;28;20066;-55
2024/01/27 01:56:39;;;;;;;3.55;1.23;;;4.00;99.90;;;;;;5111941;28;20445;-52
2024/01/27 01:59:06;;;;;;;10.57;1.90;;;3.90;99.90;;;;;;5114713;28;20038;-38
2024/01/27 02:01:31;;;;;;;12.40;1.92;;;3.90;99.90;;;;;;5114161;28;20425;-38
2024/01/27 02:03:57;;;;;;;14.52;1.50;;;3.90;99.90;;;;;;5102984;28;20052;-45
2024/01/27 02:06:24;;;;;;;5.40;1.27;;;3.90;99.90;;;;;;5113395;28;20071;-46
2024/01/27 02:08:50;;;;;;;16.52;2.38;;;3.90;99.90;;;;;;5114206;28;20455;-39
2024/01/27 02:11:16;;;;;;;12.52;2.00;;;3.90;99.90;;;;;;5112690;28;20479;-42
2024/01/27 02:13:42;;;;;;;18.75;1.90;;;3.90;99.90;;;;;;5103350;28;20035;-43
2024/01/27 02:16:08;;;;;;;10.48;1.85;;;3.90;99.90;;;;;;5094842;28;20415;-39
2024/01/27 02:18:34;;;;;;;7.95;1.63;;;3.90;99.90;;;;;;5093326;28;20047;-39
2024/01/27 02:20:59;;;;;;;2.60;0.98;;;4.00;99.90;;;;;;5092338;28;20387;-41
2024/01/27 02:23:25;;;;;;;7.10;1.95;;;3.90;99.90;;;;;;5093825;28;20032;-39
2024/01/27 02:25:50;;;;;;;8.05;1.70;;;3.80;99.90;;;;;;5099606;28;20115;-39
2024/01/27 02:28:17;;;;;;;12.27;1.52;;;3.80;99.90;;;;;;5112929;28;20123;-40
2024/01/27 02:30:43;;;;;;;4.53;0.95;;;3.80;99.90;;;;;;5113064;28;20034;-39
2024/01/27 02:33:08;;;;;;;13.38;2.00;;;3.80;99.90;;;;;;5113986;28;20031;-39
2024/01/27 02:35:34;;;;;;;8.43;2.30;;;3.80;99.90;;;;;;5107439;28;20532;-39
2024/01/27 02:38:00;;;;;;;3.40;1.15;;;3.80;99.90;;;;;;5105974;28;20028;-39
2024/01/27 02:40:25;;;;;;;17.48;1.65;;;3.70;99.90;;;;;;5112309;28;20030;-40
2024/01/27 02:42:51;;;;;;;9.90;1.58;;;3.70;99.90;;;;;;5093439;28;20053;-44
2024/01/27 02:45:17;;;;;;;13.57;2.08;;;3.80;99.90;;;;;;5098059;28;20024;-43
2024/01/27 02:47:42;;;;;;;6.70;1.23;;;3.80;99.90;;;;;;5113745;28;20027;-40
2024/01/27 02:50:08;;;;;;;9.80;1.00;;;3.80;99.90;;;;;;5113596;28;20038;-40
2024/01/27 02:52:34;;;;;;;17.63;2.47;;;3.80;99.90;;;;;;5113614;28;20068;-40
2024/01/27 02:55:00;;;;;;;11.10;1.63;;;3.70;99.90;;;;;;5111915;28;20114;-38
2024/01/27 02:57:26;;;;;;;12.38;1.58;;;3.80;99.90;;;;;;5112268;28;20508;-40
2024/01/27 02:59:52;;;;;;;16.00;1.20;;;3.80;99.90;;;;;;5113025;28;20016;-75
2024/01/27 03:02:17;;;;;;;7.75;1.83;;;3.80;99.90;;;;;;5112586;28;20039;-40
2024/01/27 03:04:43;;;;;;;14.95;2.35;;;3.80;99.90;;;;;;5110322;28;20032;-44
2024/01/27 03:07:09;;;;;;;6.22;1.45;;;3.80;99.90;;;;;;5111116;28;20031;-39
2024/01/27 03:09:34;;;;;;;10.90;1.40;;;3.80;99.90;;;;;;5113671;28;20030;-53
2024/01/27 03:12:00;;;;;;;14.50;1.80;;;3.80;99.90;;;;;;5100364;28;20497;-54
2024/01/27 03:14:26;;;;;;;17.77;2.13;;;3.80;99.90;;;;;;5113157;28;20074;-55
2024/01/27 03:16:52;;;;;;;5.82;1.00;;;3.80;99.90;;;;;;5113293;28;20039;-55
2024/01/27 03:19:18;;;;;;;14.43;1.67;;;3.80;99.90;;;;;;5112273;28;20047;-55
2024/01/27 03:21:43;;;;;;;3.00;0.90;;;3.70;99.90;;;;;;5097515;28;20115;-54
2024/01/27 03:24:09;;;;;;;8.70;2.38;;;3.80;99.90;;;;;;5092895;28;20024;-54
2024/01/27 03:26:34;;;;;;;10.02;1.65;;;3.80;99.90;;;;;;5102658;28;20027;-54
2024/01/27 03:29:00;;;;;;;17.33;2.42;;;3.70;99.90;;;;;;5113067;28;20020;-55
2024/01/27 03:31:34;;;;;;;8.48;1.60;;;3.70;99.90;;;;;;5097577;28;20020;-53
2024/01/27 03:34:00;;;;;;;3.15;1.15;;;3.80;99.90;;;;;;5092253;28;20036;-55
2024/01/27 03:36:26;;;;;;;2.85;1.20;;;3.70;99.90;;;;;;5092035;28;20573;-55
2024/01/27 03:38:51;;;;;;;12.63;2.03;;;3.70;99.90;;;;;;5112722;28;20114;-55
2024/01/27 03:41:17;;;;;;;6.18;1.70;;;3.70;99.90;;;;;;5100122;28;20023;-60
2024/01/27 03:43:43;;;;;;;10.82;2.13;;;3.70;99.90;;;;;;5092630;28;20024;-53
2024/01/27 03:46:08;;;;;;;4.97;1.63;;;3.70;99.90;;;;;;5093628;28;20016;-55
2024/01/27 03:48:35;;;;;;;12.63;2.22;;;3.80;99.90;;;;;;5092607;28;20024;-58
2024/01/27 03:51:01;;;;;;;15.13;2.97;;;3.70;99.90;;;;;;5092502;28;20551;-52
2024/01/27 03:53:27;;;;;;;15.10;2.95;;;3.70;99.90;;;;;;5093164;28;20036;-55
2024/01/27 03:55:53;;;;;;;13.98;2.33;;;3.70;99.90;;;;;;5098140;28;20028;-64
2024/01/27 03:58:19;;;;;;;14.07;2.53;;;3.70;99.90;;;;;;5112931;28;20483;-55
2024/01/27 04:00:45;;;;;;;13.10;2.47;;;3.80;99.90;;;;;;5110955;28;20577;-55
2024/01/27 04:03:10;;;;;;;2.03;1.83;;;3.80;99.90;;;;;;5112199;28;20031;-55
2024/01/27 04:05:36;;;;;;;8.02;2.47;;;3.70;99.90;;;;;;5106770;28;20392;-55
2024/01/27 04:08:04;;;;;;;20.95;2.65;;;3.70;99.90;;;;;;5092351;28;20012;-55
2024/01/27 04:10:30;;;;;;;9.40;2.92;;;3.70;99.90;;;;;;5093237;28;20384;-55
2024/01/27 04:12:55;;;;;;;6.93;2.15;;;3.60;99.90;;;;;;5109591;28;20019;-52
2024/01/27 04:15:21;;;;;;;11.57;2.88;;;3.60;99.90;;;;;;5096099;28;20111;-55
2024/01/27 04:17:46;;;;;;;21.58;3.90;;;3.60;99.90;;;;;;5096238;28;20401;-39
2024/01/27 04:20:12;;;;;;;9.15;3.03;;;3.60;99.90;;;;;;5108342;28;20028;-41
2024/01/27 04:22:39;;;;;;;15.95;3.55;;;3.60;99.90;;;;;;5096242;28;20020;-39
2024/01/27 04:25:05;;;;;;;14.27;3.10;;;3.60;99.90;;;;;;5096276;28;20400;-66
2024/01/27 04:27:32;;;;;;;11.73;4.13;;;3.70;99.90;;;;;;5110035;28;20030;-39
2024/01/27 04:29:57;;;;;;;13.93;2.97;;;3.70;99.90;;;;;;5116281;28;20073;-39
2024/01/27 04:32:23;;;;;;;5.35;2.75;;;3.70;99.90;;;;;;5100627;28;20115;-39
2024/01/27 04:34:49;;;;;;;16.02;3.42;;;3.60;99.90;;;;;;5096138;28;20035;-42
2024/01/27 04:37:15;;;;;;;9.02;2.75;;;3.60;99.90;;;;;;5101916;28;20020;-40
2024/01/27 04:39:41;;;;;;;13.27;3.70;;;3.60;99.90;;;;;;5116224;28;20028;-39
2024/01/27 04:42:06;;;;;;;15.10;4.60;;;3.60;99.90;;;;;;5102052;28;20032;-42
2024/01/27 04:44:33;;;;;;;15.65;3.28;;;3.60;99.90;;;;;;5096235;28;20107;-41
2024/01/27 04:46:58;;;;;;;14.25;3.47;;;3.60;99.90;;;;;;5095526;28;20040;-40
2024/01/27 04:49:25;;;;;;;14.15;3.67;;;3.60;99.90;;;;;;5095568;28;20024;-61
2024/01/27 04:51:51;;;;;;;10.35;3.00;;;3.60;99.90;;;;;;5095380;28;20071;-44
2024/01/27 04:54:16;;;;;;;9.95;3.42;;;3.60;99.90;;;;;;5095472;28;20024;-39
2024/01/27 04:56:42;;;;;;;8.82;2.95;;;3.60;99.90;;;;;;5112106;28;20115;-39
2024/01/27 04:59:08;;;;;;;17.15;3.20;;;3.60;99.90;;;;;;5115828;28;20035;-38
2024/01/27 05:01:34;;;;;;;11.00;3.47;;;3.60;99.90;;;;;;5112471;28;20571;-40
2024/01/27 05:03:59;;;;;;;11.68;5.47;;;3.60;99.90;;;;;;5115683;28;20391;-40
2024/01/27 05:06:25;;;;;;;12.65;4.15;;;3.60;99.90;;;;;;5115575;28;20030;-41
2024/01/27 05:08:51;;;;;;;12.57;4.35;;;3.60;99.90;;;;;;5115859;28;20023;-60
2024/01/27 05:11:29;;;;;;;10.63;4.10;;;3.60;99.90;;;;;;5113695;28;20031;-38
2024/01/27 05:13:55;;;;;;;9.00;3.80;;;3.60;99.90;;;;;;5115506;28;20395;-40
2024/01/27 05:16:20;;;;;;;18.20;5.28;;;3.60;99.90;;;;;;5115726;28;20024;-55
2024/01/27 05:18:48;;;;;;;11.18;3.50;;;3.60;99.90;;;;;;5114225;28;20059;-55
2024/01/27 05:21:14;;;;;;;10.80;4.10;;;3.60;99.90;;;;;;5113535;28;20028;-57
2024/01/27 05:23:40;;;;;;;15.40;3.85;;;3.60;99.90;;;;;;5114856;27;20069;-55
2024/01/27 05:26:06;;;;;;;10.93;4.32;;;3.50;99.90;;;;;;5113447;28;20058;-55
2024/01/27 05:28:32;;;;;;;12.88;3.83;;;3.50;99.90;;;;;;5115187;28;20099;-38
2024/01/27 05:30:57;;;;;;;11.70;3.95;;;3.60;99.90;;;;;;5100133;28;20503;-38
2024/01/27 05:33:23;;;;;;;7.43;3.55;;;3.50;99.90;;;;;;5094995;28;20020;-38
2024/01/27 05:35:49;;;;;;;9.15;3.58;;;3.60;99.90;;;;;;5095175;28;20024;-39
2024/01/27 05:38:16;;;;;;;15.38;4.22;;;3.50;99.90;;;;;;5108523;28;20391;-40
2024/01/27 05:40:42;;;;;;;9.82;3.63;;;3.60;99.90;;;;;;5113254;28;20031;-38
2024/01/27 05:43:07;;;;;;;15.45;4.43;;;3.50;99.90;;;;;;5114973;28;20019;-39
2024/01/27 05:45:33;;;;;;;12.25;3.42;;;3.50;99.90;;;;;;5114956;28;20383;-41
2024/01/27 05:47:59;;;;;;;19.45;4.53;;;3.50;99.90;;;;;;5107785;28;20020;-41
2024/01/27 05:50:24;;;;;;;13.82;4.28;;;3.50;99.90;;;;;;5094341;28;20024;-63
2024/01/27 05:52:50;;;;;;;11.13;4.28;;;3.50;99.90;;;;;;5094944;28;20035;-39
2024/01/27 05:55:17;;;;;;;10.55;4.10;;;3.50;99.90;;;;;;5101338;28;20024;-47
2024/01/27 05:57:42;;;;;;;6.45;3.97;;;3.50;99.90;;;;;;5114944;28;20449;-38
2024/01/27 06:00:09;;;;;;;22.50;4.07;;;3.50;99.90;;;;;;5112878;28;20114;-40
2024/01/27 06:02:36;;;;;;;15.20;4.65;;;3.60;99.90;;;;;;5094158;28;20047;-38
2024/01/27 06:05:02;;;;;;;21.13;4.22;;;3.50;99.90;;;;;;5093955;28;20026;-40
2024/01/27 06:07:27;;;;;;;26.40;4.35;;;3.50;99.90;;;;;;5094090;28;20024;-41
2024/01/27 06:09:53;;;;;;;10.45;4.03;;;3.50;99.90;;;;;;5094431;28;20020;-40
2024/01/27 06:12:19;;;;;;;19.88;5.15;;;3.50;99.90;;;;;;5093978;28;20438;-55
2024/01/27 06:14:45;;;;;;;13.93;4.47;;;3.50;99.90;;;;;;5098676;28;20023;-55
2024/01/27 06:17:11;;;;;;;10.23;5.05;;;3.50;99.90;;;;;;5114012;28;20027;-55
2024/01/27 06:19:37;;;;;;;34.95;4.50;;;3.50;99.90;;;;;;5114121;27;20034;-54
2024/01/27 06:22:03;;;;;;;13.10;4.25;;;3.50;99.90;;;;;;5114068;28;20028;-55
2024/01/27 06:24:28;;;;;;;16.60;4.88;;;3.50;99.90;;;;;;5113113;28;20024;-55
2024/01/27 06:26:54;;;;;;;12.35;4.55;;;3.40;99.90;;;;;;5101970;28;20427;-52
2024/01/27 06:29:20;;;;;;;10.80;4.47;;;3.40;99.90;;;;;;5093669;28;20073;-55
2024/01/27 06:31:45;;;;;;;23.02;5.10;;;3.40;99.90;;;;;;5093648;28;20031;-55
2024/01/27 06:34:11;;;;;;;10.45;4.90;;;3.40;99.90;;;;;;5093739;28;20027;-55
2024/01/27 06:36:37;;;;;;;14.60;5.07;;;3.40;99.90;;;;;;5094694;28;20024;-55
2024/01/27 06:39:02;;;;;;;8.98;4.53;;;3.40;99.90;;;;;;5109210;28;20030;-40
2024/01/27 06:41:28;;;;;;;20.02;4.72;;;3.40;99.90;;;;;;5113853;28;20031;-39
2024/01/27 06:43:53;;;;;;;24.02;4.25;;;3.40;99.90;;;;;;5110820;28;20034;-60
2024/01/27 06:46:19;;;;;;;12.02;5.28;;;3.40;99.90;;;;;;5093393;28;20480;-39
2024/01/27 06:48:45;;;;;;;10.45;4.57;;;3.40;99.90;;;;;;5093234;28;20036;-42
2024/01/27 06:51:10;;;;;;;20.45;5.38;;;3.40;99.90;;;;;;5093235;28;20098;-40
2024/01/27 06:53:36;;;;;;;15.30;5.05;;;3.40;99.90;;;;;;5093182;28;20024;-38
2024/01/27 06:56:02;;;;;;;11.43;4.65;;;3.40;99.90;;;;;;5094982;28;20431;-39
2024/01/27 06:58:27;;;;;;;10.55;4.72;;;3.30;99.90;;;;;;5112261;28;20043;-39
2024/01/27 07:00:53;;;;;;;14.93;4.43;;;3.30;99.90;;;;;;5112544;28;20452;-38
2024/01/27 07:03:19;;;;;;;17.92;5.43;;;3.30;99.90;;;;;;5099777;28;20016;-38
2024/01/27 07:05:45;;;;;;;13.57;4.50;;;3.30;99.90;;;;;;5093103;28;20032;-41
2024/01/27 07:08:11;;;;;;;15.65;5.22;;;3.30;99.90;;;;;;5094834;28;20020;-38
2024/01/27 07:10:37;;;;;;;8.10;4.63;;;3.30;99.90;;;;;;5094671;28;20503;-39
2024/01/27 07:13:03;;;;;;;13.57;4.05;;;3.30;99.90;;;;;;5113663;28;20111;-40
2024/01/27 07:15:28;;;;;;;14.85;6.28;;;3.30;99.90;;;;;;5097264;28;20061;-42
2024/01/27 07:17:54;;;;;;;17.63;5.75;;;3.30;99.90;;;;;;5093293;28;20054;-40
2024/01/27 07:20:24;;;;;;;11.20;6.43;;;3.30;99.90;;;;;;5104416;28;20023;-39
2024/01/27 07:22:50;;;;;;;13.70;5.07;;;3.30;99.90;;;;;;5111460;28;20112;-61
2024/01/27 07:25:15;;;;;;;11.80;4.82;;;3.30;99.90;;;;;;5113033;28;20467;-39
2024/01/27 07:27:41;;;;;;;15.52;4.90;;;3.30;99.90;;;;;;5113187;28;20020;-38
2024/01/27 07:30:09;;;;;;;20.08;6.18;;;3.30;99.90;;;;;;5101377;28;20531;-41
2024/01/27 07:32:34;;;;;;;13.67;5.40;;;3.30;99.90;;;;;;5107614;28;20020;-55
2024/01/27 07:35:02;;;;;;;19.13;5.47;;;3.30;99.90;;;;;;5112294;28;20265;-55
2024/01/27 07:37:27;;;;;;;25.55;5.47;;;3.30;99.90;;;;;;5110460;28;20490;-56
2024/01/27 07:39:53;;;;;;;21.50;5.57;;;3.30;99.90;;;;;;5098419;28;20033;-73
2024/01/27 07:42:19;;;;;;;12.02;5.00;;;3.30;99.90;;;;;;5113102;28;20042;-54
2024/01/27 07:44:44;;;;;;;10.48;4.60;;;3.30;99.90;;;;;;5113035;28;20036;-54
2024/01/27 07:47:10;;;;;;;10.35;4.43;;;3.30;99.90;;;;;;5116383;28;20024;-53
2024/01/27 07:49:36;;;;;;;11.25;5.20;;;3.30;99.90;;;;;;5116937;28;20049;-38
2024/01/27 07:52:01;;;;;;;16.40;5.15;;;3.30;99.90;;;;;;5116322;28;20031;-37
2024/01/27 07:54:27;;;;;;;15.63;5.10;;;3.30;99.90;;;;;;5100704;28;20028;-39
2024/01/27 07:56:53;;;;;;;14.93;4.82;;;3.40;99.90;;;;;;5096672;28;20028;-38
2024/01/27 07:59:19;;;;;;;18.40;5.80;;;3.40;99.90;;;;;;5096519;28;20028;-38
2024/01/27 08:01:45;;;;;;;17.20;6.50;;;3.50;99.90;;;;;;5096742;28;20028;-44
2024/01/27 08:04:10;;;;;;;13.32;5.32;;;3.50;99.90;;;;;;5096510;28;20028;-39
2024/01/27 08:06:47;;;;;;;18.38;5.85;;;3.60;99.90;;;;;;5096408;28;20098;-64
2024/01/27 08:09:12;;;;;;;15.70;5.60;;;3.60;99.90;;;;;;5097024;28;20464;-69
2024/01/27 08:11:38;;;;;;;11.35;5.88;;;3.70;99.90;;;;;;5100910;28;20035;-38
2024/01/27 08:14:04;;;;;;;15.07;5.07;;;3.70;99.90;;;;;;5116519;28;20035;-39
2024/01/27 08:16:29;;;;;;;12.43;5.35;;;3.80;99.90;;;;;;5116947;28;20019;-39
2024/01/27 08:18:55;;;;;;;15.15;5.57;;;3.80;99.90;;;;;;5114644;28;20050;-39
2024/01/27 08:21:21;;;;;;;11.52;5.30;;;3.80;99.90;;;;;;5116605;28;20028;-40
2024/01/27 08:23:46;;;;;;;15.40;5.05;;;3.90;99.90;;;;;;5103563;28;20027;-38
2024/01/27 08:26:12;;;;;;;13.30;5.70;;;3.90;99.90;;;;;;5110544;28;20065;-39
2024/01/27 08:28:38;;;;;;;19.42;5.13;;;3.90;99.90;;;;;;5101565;28;20035;-38
2024/01/27 08:31:04;;;;;;;14.75;5.05;;;4.00;99.90;;;;;;5096191;28;20024;-39
2024/01/27 08:33:30;;;;;;;14.68;5.95;;;4.00;99.90;;;;;;5095889;28;20025;-40
2024/01/27 08:35:56;;;;;;;19.27;5.65;;;4.10;99.90;;;;;;5110858;28;20028;-40
2024/01/27 08:38:22;;;;;;;13.98;5.03;;;4.10;99.90;;;;;;5109415;28;20035;-42
2024/01/27 08:40:48;;;;;;;10.80;4.78;;;4.20;99.90;;;;;;5098232;28;20023;-41
2024/01/27 08:43:14;;;;;;;23.40;5.18;;;4.30;99.90;;;;;;5098630;28;20027;-43
2024/01/27 08:45:40;;;;;;;17.88;5.65;;;4.30;99.90;;;;;;5095796;28;20360;-56
2024/01/27 08:48:06;;;;;;;13.18;5.03;;;4.40;99.90;;;;;;5099927;28;20024;-39
2024/01/27 08:50:32;;;;;;;11.52;4.80;;;4.40;99.90;;;;;;5095550;28;20062;-40
2024/01/27 08:52:58;;;;;;;14.68;5.05;;;4.50;99.90;;;;;;5095709;28;20031;-40
2024/01/27 08:55:24;;;;;;;7.38;4.82;;;4.60;99.90;;;;;;5099059;28;20024;-38
2024/01/27 08:57:50;;;;;;;13.43;4.93;;;4.70;99.90;;;;;;5094838;28;20388;-41
2024/01/27 09:00:16;;;;;;;24.55;5.60;;;4.80;99.90;;;;;;5095960;28;20032;-39
2024/01/27 09:02:42;;;;;;;11.35;4.90;;;4.90;99.90;;;;;;5095304;28;20103;-39
2024/01/27 09:05:08;;;;;;;20.92;5.43;;;4.90;99.90;;;;;;5097258;28;20514;-38
2024/01/27 09:07:34;;;;;;;23.00;5.38;;;5.00;99.90;;;;;;5095121;28;20055;-39
2024/01/27 09:10:00;;;;;;;15.52;5.53;;;5.00;99.90;;;;;;5111133;28;20053;-41
2024/01/27 09:12:26;;;;;;;11.95;4.43;;;5.00;99.90;;;;;;5115547;28;20431;-37
2024/01/27 09:14:53;;;;;;;11.25;6.07;;;5.10;99.90;;;;;;5094543;28;20061;-39
2024/01/27 09:17:19;;;;;;;21.95;5.55;;;5.00;99.90;;;;;;5095650;28;20047;-41
2024/01/27 09:19:45;;;;;;;16.42;5.57;;;5.00;99.90;;;;;;5095108;28;20024;-39
2024/01/27 09:22:10;;;;;;;18.30;5.80;;;5.00;99.90;;;;;;5095241;28;20032;-39
2024/01/27 09:24:36;;;;;;;16.00;5.50;;;5.10;99.90;;;;;;5097110;28;20105;-42
2024/01/27 09:27:02;;;;;;;12.85;5.57;;;5.10;99.90;;;;;;5095088;28;20020;-38
2024/01/27 09:29:28;;;;;;;17.77;6.30;;;5.20;99.90;;;;;;5094838;28;20539;-38
2024/01/27 09:31:54;;;;;;;26.27;6.00;;;5.20;99.90;;;;;;5094737;28;20103;-49
2024/01/27 09:34:20;;;;;;;15.95;5.95;;;5.30;99.90;;;;;;5095905;28;20074;-40
2024/01/27 09:36:45;;;;;;;38.78;7.47;;;5.40;99.90;;;;;;5094533;28;20376;-40
2024/01/27 09:39:11;;;;;;;31.33;8.73;;;5.40;99.90;;;;;;5105030;28;20047;-39
2024/01/27 09:41:38;;;;;;;22.17;7.28;;;5.40;99.90;;;;;;5109181;28;20073;-42
2024/01/27 09:44:04;;;;;;;28.23;8.05;;;5.40;99.90;;;;;;5094560;28;20073;-41
2024/01/27 09:46:32;;;;;;;23.95;7.15;;;5.40;99.90;;;;;;5114753;28;20115;-39
2024/01/27 09:48:58;;;;;;;33.47;8.93;;;5.40;99.90;;;;;;5114787;28;20032;-46
2024/01/27 09:51:25;;;;;;;22.45;7.28;;;5.40;99.90;;;;;;5112089;28;20491;-39
2024/01/27 09:53:51;;;;;;;20.83;6.88;;;5.50;99.90;;;;;;5107733;28;20102;-40
2024/01/27 09:56:20;;;;;;;22.77;7.07;;;5.60;99.90;;;;;;5094599;28;20534;-39
2024/01/27 09:58:49;;;;;;;23.38;6.93;;;5.60;99.90;;;;;;5094228;28;20031;-41
2024/01/27 10:01:17;;;;;;;20.38;6.22;;;5.60;99.90;;;;;;5093977;28;20043;-38
2024/01/27 10:03:43;;;;;;;;;;;5.70;99.90;;;;;;5094583;28;20476;-40
2024/01/27 10:06:10;;;;;;;20.92;7.28;;;5.80;99.90;;;;;;5094116;28;19915;-41
2024/01/27 10:08:36;;;;;;;12.93;6.40;;;5.80;99.90;;;;;;5094805;28;20021;-56
2024/01/27 10:11:09;;;;;;;13.90;6.55;;;5.90;99.90;;;;;;5096782;28;20565;-55
2024/01/27 10:13:36;;;;;;;13.85;5.78;;;5.90;99.90;;;;;;5093745;28;20482;-55
2024/01/27 10:16:03;;;;;;;26.35;6.10;;;6.00;99.90;;;;;;5093603;28;20035;-55
2024/01/27 10:18:30;;;;;;;26.45;6.97;;;6.00;99.90;;;;;;5092049;28;20474;-55
2024/01/27 10:20:56;;;;;;;22.45;5.85;;;6.10;99.90;;;;;;5093960;28;20119;-57
2024/01/27 10:23:22;;;;;;;23.85;5.82;;;6.20;99.90;;;;;;5093704;28;20048;-56
2024/01/27 10:25:48;;;;;;;16.70;4.95;;;6.20;99.90;;;;;;5102442;28;20035;-61
2024/01/27 10:28:13;;;;;;;12.38;5.40;;;6.30;99.90;;;;;;5094026;28;20435;-54
2024/01/27 10:30:39;;;;;;;13.60;5.10;;;6.30;99.90;;;;;;5093580;28;20446;-55
2024/01/27 10:33:07;;;;;;;15.68;5.60;;;6.40;99.90;;;;;;5093610;28;20020;-53
2024/01/27 10:35:33;;;;;;;17.30;5.78;;;6.40;99.90;;;;;;5093518;28;20024;-58
2024/01/27 10:37:58;;;;;;;13.77;4.78;;;6.50;99.90;;;;;;5094398;28;20024;-56
2024/01/27 10:40:25;;;;;;;12.40;5.70;;;6.50;99.90;;;;;;5093326;28;20388;-53
2024/01/27 10:43:05;;;;;;;20.48;6.28;;;6.60;99.90;;;;;;5107112;28;20020;-55
2024/01/27 10:45:49;;;;;;;24.67;5.30;;;6.60;99.90;;;;;;5113572;28;20015;-55
2024/01/27 10:48:15;;;;;;;12.02;4.65;;;6.70;99.90;;;;;;5111878;28;20062;-73
2024/01/27 10:50:41;;;;;;;20.23;5.15;;;6.80;99.90;;;;;;5096115;28;20024;-56
2024/01/27 10:53:22;;;;;;;17.23;5.00;;;6.80;99.90;;;;;;5094103;28;20444;-56
2024/01/27 10:55:48;;;;;;;11.70;4.43;;;6.80;99.90;;;;;;5093164;28;20085;-56
2024/01/27 10:58:14;;;;;;;18.58;4.82;;;6.90;99.90;;;;;;5093968;28;20031;-56
2024/01/27 11:00:42;;;;;;;20.05;5.00;;;7.00;99.90;;;;;;5105619;28;20024;-54
2024/01/27 11:03:09;;;;;;;13.30;4.60;;;7.00;99.90;;;;;;5093004;28;20077;-57
2024/01/27 11:05:36;;;;;;;14.10;4.67;;;7.00;99.90;;;;;;5092937;28;20031;-56
2024/01/27 11:08:03;;;;;;;13.45;4.75;;;7.10;99.90;;;;;;5098506;28;20020;-55
2024/01/27 11:10:35;;;;;;;17.40;5.10;;;7.20;99.90;;;;;;5113361;28;20494;-56
2024/01/27 11:13:04;;;;;;;18.10;4.60;;;7.20;99.90;;;;;;5112487;28;20472;-56
2024/01/27 11:15:32;;;;;;;16.92;4.47;;;7.30;99.90;;;;;;5097522;28;20020;-55
2024/01/27 11:18:02;;;;;;;22.42;4.50;;;7.30;99.90;;;;;;5092649;28;20052;-56
2024/01/27 11:20:30;;;;;;;16.50;4.78;;;7.30;99.90;;;;;;5091139;28;20020;-41
2024/01/27 11:22:57;;;;;;;25.05;5.30;;;7.40;99.90;;;;;;5092745;28;20028;-40
2024/01/27 11:25:23;;;;;;;14.93;4.70;;;7.40;99.90;;;;;;5093052;28;20506;-39
2024/01/27 11:27:51;;;;;;;16.40;4.75;;;7.50;99.90;;;;;;5096150;28;20047;-38
2024/01/27 11:30:33;;;;;;;18.00;4.95;;;7.60;99.90;;;;;;5092887;28;20534;-40
2024/01/27 11:33:01;;;;;;;17.90;4.50;;;7.70;99.90;;;;;;5105151;28;20511;-38
2024/01/27 11:35:27;;;;;;;;;;;7.60;99.90;;;;;;5106867;28;20395;-59
2024/01/27 11:37:53;;;;;;;15.68;4.50;;;7.60;99.90;;;;;;5096089;28;20002;-58
2024/01/27 11:40:19;;;;;;;8.65;3.40;;;7.70;99.90;;;;;;5092586;28;20096;-57
2024/01/27 11:42:57;;;;;;;15.80;4.60;;;7.70;99.90;;;;;;5092665;28;20031;-52
2024/01/27 11:45:23;;;;;;;15.65;4.43;;;7.70;99.90;;;;;;5092544;28;20020;-58
2024/01/27 11:47:49;;;;;;;8.57;3.53;;;7.90;99.90;;;;;;5092574;28;20468;-56
2024/01/27 11:50:18;;;;;;;22.08;4.47;;;7.90;99.90;;;;;;5093278;28;20528;-56
2024/01/27 11:52:44;;;;;;;9.60;3.72;;;7.90;99.90;;;;;;5096845;28;20464;-56
2024/01/27 11:55:09;;;;;;;15.95;4.13;;;8.00;99.90;;;;;;5104900;28;20103;-56
2024/01/27 11:57:35;;;;;;;16.20;3.83;;;8.00;99.90;;;;;;5092835;28;20020;-56
2024/01/27 12:00:01;;;;;;;15.95;4.35;;;8.10;99.90;;;;;;5092443;28;20016;-55
2024/01/27 12:02:27;;;;;;;12.93;5.78;;;8.10;99.90;;;;;;5092222;28;20051;-56
2024/01/27 12:04:53;;;;;;;18.25;4.50;;;8.20;99.90;;;;;;5091034;28;20384;-55
2024/01/27 12:07:19;;;;;;;13.90;4.07;;;8.20;99.90;;;;;;5105920;28;20106;-55
2024/01/27 12:09:45;;;;;;;13.98;3.42;;;8.20;99.90;;;;;;5106957;28;20099;-55
2024/01/27 12:12:14;;;;;;;11.88;3.85;;;8.30;99.90;;;;;;5112484;28;20027;-74
2024/01/27 12:14:40;;;;;;;;;;;8.30;99.90;;;;;;5103341;28;20032;-52
2024/01/27 12:17:07;;;;;;;20.30;4.05;;;8.40;99.90;;;;;;5092097;28;19904;-56
2024/01/27 12:19:33;;;;;;;7.07;2.88;;;8.50;99.90;;;;;;5092311;28;20082;-56
2024/01/27 12:21:59;;;;;;;9.82;3.45;;;8.50;99.90;;;;;;5102997;28;20310;-60
2024/01/27 12:24:24;;;;;;;20.55;4.07;;;8.50;99.90;;;;;;5092596;28;20387;-60
2024/01/27 12:26:50;;;;;;;20.50;3.38;;;8.50;99.90;;;;;;5096941;28;20055;-56
2024/01/27 12:29:16;;;;;;;12.43;3.17;;;8.50;99.90;;;;;;5111655;28;20032;-40
2024/01/27 12:31:42;;;;;;;13.45;3.10;;;8.60;99.90;;;;;;5111681;28;20031;-42
2024/01/27 12:34:09;;;;;;;7.70;2.75;;;8.70;99.90;;;;;;5113718;28;20076;-39
2024/01/27 12:36:39;;;;;;;7.15;4.18;;;8.70;99.90;;;;;;5105350;28;20472;-44
2024/01/27 12:39:05;;;;;;;12.93;2.78;;;8.70;99.90;;;;;;5094285;28;20028;-39
2024/01/27 12:41:33;;;;;;;8.00;2.60;;;8.70;99.90;;;;;;5095855;28;20050;-40
2024/01/27 12:43:59;;;;;;;6.13;2.67;;;8.70;99.90;;;;;;5097194;28;20051;-39
2024/01/27 12:46:25;;;;;;;5.68;2.70;;;8.80;99.90;;;;;;5111274;28;20051;-42